Time;durP1;ratioP1;P1;durP2;ratioP2;P2;SDS_P1;SDS_P2;PMS_P1;PMS_P2;Temp;Humidity;BMP_temperature;BMP_pressure;BME280_temperature;BME280_humidity;BME280_pressure;Samples;Min_cycle;Max_cycle;Signal;HPM_P1;HPM_P2
2023/06/24 00:01:16;;;;;;;10.50;9.40;;;;;;;22.99;69.89;97136.69;5029778;28;20206;-76
2023/06/24 00:03:46;;;;;;;10.27;9.27;;;;;;;22.96;70.43;97142.25;5031438;28;20305;-78
2023/06/24 00:06:18;;;;;;;10.77;9.67;;;;;;;22.81;70.87;97133.97;5030280;28;20205;-78
2023/06/24 00:08:46;;;;;;;13.77;10.37;;;;;;;22.87;70.62;97130.75;5013059;28;20234;-77
2023/06/24 00:11:13;;;;;;;12.43;10.33;;;;;;;22.86;70.72;97128.22;5031364;28;20624;-79
2023/06/24 00:13:42;;;;;;;11.93;9.27;;;;;;;22.79;70.44;97121.88;5029699;28;20201;-78
2023/06/24 00:16:10;;;;;;;13.23;9.60;;;;;;;22.86;70.97;97133.50;5031006;28;20194;-78
2023/06/24 00:18:40;;;;;;;13.03;9.70;;;;;;;22.59;70.49;97086.75;5029378;28;20216;-76
2023/06/24 00:21:07;;;;;;;14.10;10.33;;;;;;;22.61;71.48;97135.78;5030994;28;20218;-77
2023/06/24 00:23:34;;;;;;;12.33;10.03;;;;;;;22.62;71.07;97128.72;5030090;28;20201;-76
2023/06/24 00:26:02;;;;;;;10.97;9.90;;;;;;;22.38;72.02;97102.72;5030605;28;20201;-76
2023/06/24 00:28:29;;;;;;;12.17;10.80;;;;;;;22.35;72.92;97118.03;5030869;28;20240;-77
2023/06/24 00:30:56;;;;;;;11.30;10.20;;;;;;;22.25;73.21;97118.03;5029361;28;20232;-77
2023/06/24 00:33:23;;;;;;;11.07;9.97;;;;;;;22.28;72.95;97125.66;5013099;28;20223;-78
2023/06/24 00:35:50;;;;;;;12.03;10.37;;;;;;;22.16;73.51;97124.16;5029511;28;20200;-78
2023/06/24 00:38:17;;;;;;;11.37;10.20;;;;;;;22.06;73.35;97112.75;5030900;28;20208;-77
2023/06/24 00:40:46;;;;;;;12.00;10.77;;;;;;;22.25;73.40;97119.84;5029485;28;20240;-76
2023/06/24 00:43:14;;;;;;;11.90;10.20;;;;;;;22.21;72.85;97100.81;5030104;28;20294;-77
2023/06/24 00:45:41;;;;;;;19.43;10.70;;;;;;;22.28;72.15;97103.72;5012936;28;20269;-77
2023/06/24 00:48:08;;;;;;;10.93;9.83;;;;;;;22.36;71.75;97096.75;5028878;28;20239;-76
2023/06/24 00:50:37;;;;;;;11.50;10.27;;;;;;;22.35;72.08;97097.75;5030555;28;20223;-76
2023/06/24 00:53:04;;;;;;;13.93;10.73;;;;;;;22.43;71.45;97082.03;5028862;28;20212;-77
2023/06/24 00:55:31;;;;;;;14.17;10.10;;;;;;;22.56;70.64;97106.34;5030317;28;20210;-77
2023/06/24 00:57:59;;;;;;;11.10;9.07;;;;;;;22.48;71.02;97090.34;5029016;28;20304;-76
2023/06/24 01:00:27;;;;;;;12.37;9.40;;;;;;;22.64;70.49;97093.28;5029933;28;20201;-76
2023/06/24 01:02:57;;;;;;;13.57;9.63;;;;;;;22.53;70.94;97074.09;5030212;28;20207;-77
2023/06/24 01:05:28;;;;;;;10.43;9.33;;;;;;;22.83;69.78;97100.31;5011135;28;20203;-77
2023/06/24 01:07:56;;;;;;;11.63;9.53;;;;;;;22.72;69.70;97092.56;5012617;28;20283;-75
2023/06/24 01:10:24;;;;;;;10.73;9.07;;;;;;;22.50;69.77;97098.97;5010221;28;20227;-75
2023/06/24 01:12:51;;;;;;;13.23;8.73;;;;;;;22.64;69.62;97095.94;5029979;28;20208;-77
2023/06/24 01:15:22;;;;;;;13.40;9.20;;;;;;;22.53;69.58;97088.13;5028743;28;20270;-75
2023/06/24 01:18:08;;;;;;;11.00;9.17;;;;;;;22.15;71.03;97080.28;5029529;28;20208;-76
2023/06/24 01:20:46;;;;;;;14.00;9.10;;;;;;;21.96;71.83;97082.91;5029948;28;20301;-76
2023/06/24 01:23:47;;;;;;;11.63;9.57;;;;;;;22.02;72.21;97085.00;5028297;28;20218;-76
2023/06/24 01:26:46;;;;;;;15.10;9.47;;;;;;;21.86;72.29;97090.00;4995703;28;20223;-76
2023/06/24 01:29:32;;;;;;;13.40;9.13;;;;;;;21.78;72.50;97093.28;5010432;28;20244;-76
2023/06/24 01:32:02;;;;;;;10.13;8.90;;;;;;;21.94;72.01;97092.78;5028492;28;20299;-76
2023/06/24 01:34:36;;;;;;;10.37;8.63;;;;;;;21.97;71.76;97087.22;5030073;28;20294;-76
2023/06/24 01:37:13;;;;;;;11.10;8.80;;;;;;;21.69;72.99;97078.31;5028717;28;20201;-76
2023/06/24 01:39:50;;;;;;;11.70;9.33;;;;;;;21.20;74.05;97088.03;5028728;28;20715;-76
2023/06/24 01:42:21;;;;;;;12.07;9.13;;;;;;;21.11;75.07;97083.56;5029378;28;20266;-76
2023/06/24 01:44:49;;;;;;;11.27;9.47;;;;;;;20.85;76.35;97070.84;5009895;28;20298;-76
2023/06/24 01:47:21;;;;;;;12.13;10.03;;;;;;;20.47;78.57;97069.81;5029398;28;20329;-77
2023/06/24 01:49:52;;;;;;;14.13;10.53;;;;;;;20.28;80.14;97074.00;5027843;28;20245;-75
2023/06/24 01:53:02;;;;;;;11.73;10.53;;;;;;;20.50;79.97;97083.56;5029115;28;20199;-77
2023/06/24 01:56:22;;;;;;;13.23;9.30;;;;;;;20.92;77.99;97076.38;5010751;28;20290;-77
2023/06/24 01:59:43;;;;;;;12.53;10.20;;;;;;;21.29;77.01;97079.34;5027809;28;20831;-77
2023/06/24 02:03:04;;;;;;;12.77;9.97;;;;;;;20.69;78.97;97085.47;5026598;28;20199;-77
2023/06/24 02:06:24;;;;;;;14.13;10.50;;;;;;;21.18;77.46;97071.53;5009592;28;20290;-76
2023/06/24 02:09:45;;;;;;;12.30;10.27;;;;;;;21.34;76.43;97061.31;5027838;28;20793;-77
2023/06/24 02:13:06;;;;;;;12.40;10.30;;;;;;;21.25;76.00;97075.28;5028031;28;20205;-76
2023/06/24 02:16:29;;;;;;;12.00;10.43;;;;;;;20.93;77.73;97076.28;5026384;28;20249;-77
2023/06/24 02:19:50;;;;;;;11.80;10.30;;;;;;;20.88;78.60;97075.84;5026385;28;20209;-76
2023/06/24 02:23:10;;;;;;;12.53;10.53;;;;;;;21.05;77.45;97080.50;5009365;28;20200;-76
2023/06/24 02:26:31;;;;;;;12.47;10.97;;;;;;;21.03;77.65;97077.19;5027546;28;20214;-77
2023/06/24 02:29:52;;;;;;;16.30;11.67;;;;;;;20.74;78.36;97081.47;5026832;28;20235;-76
2023/06/24 02:33:13;;;;;;;14.90;10.80;;;;;;;20.92;78.27;97100.94;5026039;28;20285;-77
2023/06/24 02:36:33;;;;;;;11.90;10.70;;;;;;;21.13;77.44;97106.19;5009304;28;20225;-76
2023/06/24 02:39:54;;;;;;;13.43;10.80;;;;;;;20.62;79.21;97103.56;5027611;28;20795;-78
2023/06/24 02:43:15;;;;;;;14.50;9.97;;;;;;;20.62;78.71;97114.09;5027645;28;20201;-76
2023/06/24 02:46:35;;;;;;;11.03;9.40;;;;;;;20.65;77.71;97110.38;5025839;28;20245;-76
2023/06/24 02:49:57;;;;;;;12.23;10.33;;;;;;;20.20;80.16;97118.50;5025715;28;20241;-77
2023/06/24 02:53:18;;;;;;;14.50;11.27;;;;;;;19.80;83.86;97114.84;5009661;28;20210;-76
2023/06/24 02:56:44;;;;;;;15.13;12.80;;;;;;;20.08;83.57;97114.25;5009616;28;20292;-76
2023/06/24 03:00:17;;;;;;;16.83;13.50;;;;;;;20.44;81.55;97114.81;5009891;28;20602;-78
2023/06/24 03:04:01;;;;;;;20.37;13.43;;;;;;;20.75;80.46;97122.59;4980369;28;20195;-78
2023/06/24 03:07:22;;;;;;;18.20;12.73;;;;;;;20.87;78.94;97120.72;5025435;28;20240;-78
2023/06/24 03:10:43;;;;;;;18.93;12.90;;;;;;;21.03;78.66;97121.94;5005847;28;20730;-77
2023/06/24 03:14:05;;;;;;;15.67;12.07;;;;;;;21.18;78.21;97124.22;5006416;28;20678;-77
2023/06/24 03:17:26;;;;;;;16.40;13.10;;;;;;;21.39;77.37;97125.00;5007166;28;20230;-76
2023/06/24 03:20:47;;;;;;;14.17;12.43;;;;;;;21.32;77.50;97124.69;5006137;28;20261;-78
2023/06/24 03:24:10;;;;;;;15.90;12.73;;;;;;;21.18;78.44;97132.13;5005495;28;20222;-77
2023/06/24 03:27:33;;;;;;;18.47;12.13;;;;;;;21.40;77.01;97134.53;5022413;28;20715;-77
2023/06/24 03:30:55;;;;;;;23.40;14.47;;;;;;;20.94;79.01;97141.13;5022554;28;20239;-77
2023/06/24 03:34:17;;;;;;;19.03;13.67;;;;;;;20.87;80.08;97141.78;5004407;28;20290;-78
2023/06/24 03:37:37;;;;;;;15.87;13.07;;;;;;;21.18;79.29;97145.28;5006156;28;20718;-76
2023/06/24 03:40:58;;;;;;;17.40;12.97;;;;;;;21.57;77.49;97133.91;5022170;28;20210;-77
2023/06/24 03:44:20;;;;;;;15.40;12.77;;;;;;;21.65;76.73;97147.25;5007645;28;20656;-75
2023/06/24 03:47:41;;;;;;;16.07;11.90;;;;;;;22.06;75.08;97148.84;5004943;28;20742;-76
2023/06/24 03:51:02;;;;;;;15.10;11.57;;;;;;;22.78;73.27;97142.16;5003973;28;20229;-76
2023/06/24 03:54:24;;;;;;;12.90;11.50;;;;;;;23.05;71.78;97146.66;5005165;28;20232;-76
2023/06/24 03:57:45;;;;;;;13.10;11.67;;;;;;;22.59;72.23;97150.09;5022117;28;20201;-76
2023/06/24 04:01:06;;;;;;;13.50;10.73;;;;;;;23.30;70.20;97140.75;5021742;28;20642;-76
2023/06/24 04:04:27;;;;;;;15.23;12.13;;;;;;;22.53;72.65;97151.47;5005940;28;20206;-78
2023/06/24 04:07:50;;;;;;;16.30;11.43;;;;;;;22.64;71.86;97150.53;5005852;28;20785;-76
2023/06/24 04:11:11;;;;;;;15.03;11.70;;;;;;;22.64;72.26;97148.72;5005475;28;20234;-76
2023/06/24 04:14:32;;;;;;;14.10;11.53;;;;;;;22.27;73.32;97153.03;5007371;28;20560;-78
2023/06/24 04:17:52;;;;;;;13.37;11.60;;;;;;;22.43;73.14;97148.03;5005155;28;20300;-79
2023/06/24 04:21:14;;;;;;;12.73;10.80;;;;;;;22.43;74.20;97139.25;5004558;28;20206;-79
2023/06/24 04:24:35;;;;;;;14.67;11.83;;;;;;;22.21;73.43;97107.91;5005440;28;20209;-79
2023/06/24 04:27:57;;;;;;;13.13;11.67;;;;;;;22.34;74.13;97148.84;5021874;28;20203;-78
2023/06/24 04:31:17;;;;;;;15.63;12.17;;;;;;;22.30;74.96;97154.53;5005809;28;20295;-77
2023/06/24 04:34:40;;;;;;;13.70;11.63;;;;;;;22.84;73.45;97133.66;5005495;28;20253;-76
2023/06/24 04:38:01;;;;;;;13.60;11.63;;;;;;;23.98;69.35;97152.63;5004578;28;20203;-77
2023/06/24 04:41:22;;;;;;;13.27;10.90;;;;;;;24.29;67.45;97146.00;5021655;28;20214;-78
2023/06/24 04:44:43;;;;;;;15.47;10.63;;;;;;;24.49;67.07;97151.97;5007749;28;20197;-77
2023/06/24 04:48:04;;;;;;;13.07;10.60;;;;;;;25.27;64.41;97165.13;5009614;28;20232;-77
2023/06/24 04:51:24;;;;;;;13.63;11.73;;;;;;;24.57;66.61;97159.97;5008808;28;20764;-77
2023/06/24 04:54:45;;;;;;;13.43;11.47;;;;;;;25.03;65.62;97157.88;5009968;28;20850;-78
2023/06/24 04:58:06;;;;;;;14.47;10.70;;;;;;;25.38;64.41;97162.19;5026302;28;20268;-77
2023/06/24 05:01:27;;;;;;;14.07;11.33;;;;;;;25.71;62.86;97164.03;5000186;28;20207;-77
2023/06/24 05:04:48;;;;;;;13.10;11.10;;;;;;;25.95;62.25;97165.06;5007770;28;20687;-77
2023/06/24 05:08:11;;;;;;;12.03;10.80;;;;;;;25.87;62.75;97162.41;5012689;28;20286;-77
2023/06/24 05:11:31;;;;;;;12.47;10.43;;;;;;;26.10;61.15;97166.97;5017069;28;20206;-76
2023/06/24 05:14:55;;;;;;;13.47;12.00;;;;;;;26.03;61.08;97135.91;5024501;28;20283;-75
2023/06/24 05:18:16;;;;;;;11.13;10.03;;;;;;;26.19;60.97;97163.34;5028624;28;20308;-76
2023/06/24 05:21:37;;;;;;;14.73;11.87;;;;;;;25.56;62.48;97160.31;5027310;28;20602;-75
2023/06/24 05:24:58;;;;;;;13.00;10.40;;;;;;;26.13;61.64;97160.53;5028508;28;20194;-75
2023/06/24 05:28:18;;;;;;;16.20;11.47;;;;;;;26.54;59.85;97165.69;5029271;28;20202;-74
2023/06/24 05:31:39;;;;;;;14.27;11.23;;;;;;;26.75;58.76;97121.88;5027831;28;20209;-75
2023/06/24 05:35:00;;;;;;;12.30;10.90;;;;;;;27.15;57.60;97157.19;5026571;28;20211;-75
2023/06/24 05:38:20;;;;;;;15.10;10.70;;;;;;;27.27;57.40;97158.50;5009636;28;20333;-75
2023/06/24 05:41:41;;;;;;;13.60;10.13;;;;;;;27.17;57.32;97160.50;5028205;28;20199;-74
2023/06/24 05:45:02;;;;;;;13.43;10.63;;;;;;;27.12;57.15;97157.53;5028225;28;20294;-75
2023/06/24 05:48:22;;;;;;;16.67;11.07;;;;;;;27.38;56.85;97162.66;5026124;28;20750;-75
2023/06/24 05:51:43;;;;;;;16.07;10.00;;;;;;;27.37;56.24;97168.97;5026234;28;20714;-75
2023/06/24 05:55:04;;;;;;;12.87;10.60;;;;;;;27.64;55.11;97157.06;5027961;28;20282;-75
2023/06/24 05:58:25;;;;;;;12.77;10.63;;;;;;;27.81;55.28;97159.47;5027881;28;20202;-75
2023/06/24 06:01:45;;;;;;;12.43;10.67;;;;;;;27.74;56.44;97158.50;5029088;28;20210;-74
2023/06/24 06:05:06;;;;;;;14.70;10.03;;;;;;;27.59;56.38;97162.06;5032963;28;20567;-74
2023/06/24 06:08:27;;;;;;;13.50;10.47;;;;;;;27.82;55.22;97165.63;5033319;28;20686;-74
2023/06/24 06:11:47;;;;;;;14.80;9.10;;;;;;;27.91;54.98;97153.94;5020823;28;20241;-74
2023/06/24 06:15:08;;;;;;;18.33;10.43;;;;;;;27.81;54.92;97161.31;5007056;28;20288;-78
2023/06/24 06:18:29;;;;;;;14.90;8.97;;;;;;;28.18;54.08;97164.97;5010626;28;20203;-76
2023/06/24 06:21:51;;;;;;;14.47;10.30;;;;;;;27.92;53.40;97166.25;5021361;28;20566;-75
2023/06/24 06:25:12;;;;;;;25.47;17.30;;;;;;;26.66;57.79;97160.88;5027110;28;20205;-75
2023/06/24 06:28:33;;;;;;;15.47;10.40;;;;;;;27.04;56.97;97160.19;5027017;28;20207;-76
2023/06/24 06:31:55;;;;;;;12.57;10.93;;;;;;;26.63;58.39;97141.81;5025460;28;20641;-74
2023/06/24 06:35:15;;;;;;;12.07;9.27;;;;;;;27.13;55.89;97172.50;5025158;28;20261;-75
2023/06/24 06:38:39;;;;;;;13.67;9.53;;;;;;;27.18;55.21;97140.06;5026636;28;20209;-76
2023/06/24 06:42:00;;;;;;;13.93;10.03;;;;;;;27.72;53.79;97168.50;5026944;28;20708;-76
2023/06/24 06:45:22;;;;;;;9.70;8.53;;;;;;;27.28;51.44;97167.31;5026555;28;20615;-77
2023/06/24 06:48:43;;;;;;;9.97;8.97;;;;;;;27.86;52.72;97174.94;5006980;28;20222;-78
2023/06/24 06:52:03;;;;;;;11.43;10.27;;;;;;;27.32;53.58;97153.50;5025639;28;20206;-76
2023/06/24 06:55:24;;;;;;;10.93;9.40;;;;;;;27.44;52.03;97151.31;5029434;28;20195;-76
2023/06/24 06:58:45;;;;;;;14.93;11.27;;;;;;;27.65;50.88;97164.03;5037325;28;20194;-75
2023/06/24 07:02:06;;;;;;;12.87;10.03;;;;;;;28.13;49.99;97169.16;4993786;28;20236;-75
2023/06/24 07:05:26;;;;;;;14.73;11.57;;;;;;;27.77;49.89;97162.66;5024923;28;20207;-74
2023/06/24 07:08:47;;;;;;;10.63;8.73;;;;;;;27.72;47.52;97160.50;5025576;28;20336;-74
2023/06/24 07:12:09;;;;;;;13.37;9.33;;;;;;;27.65;48.00;97150.75;5026294;28;20199;-74
2023/06/24 07:15:30;;;;;;;10.77;6.97;;;;;;;28.34;42.16;97156.00;5019315;28;20667;-75
2023/06/24 07:18:51;;;;;;;5.90;5.17;;;;;;;28.43;36.40;97154.97;5010208;28;20229;-74
2023/06/24 07:22:11;;;;;;;6.83;5.60;;;;;;;28.16;34.33;97142.16;5011027;28;20245;-75
2023/06/24 07:25:32;;;;;;;9.57;6.50;;;;;;;28.30;35.78;97151.22;4996589;28;20749;-74
2023/06/24 07:28:53;;;;;;;5.83;5.23;;;;;;;28.52;36.16;97153.06;5023380;28;20770;-77
2023/06/24 07:32:14;;;;;;;6.27;5.07;;;;;;;28.58;36.83;97123.91;5004443;28;20203;-75
2023/06/24 07:35:35;;;;;;;9.93;6.53;;;;;;;29.05;38.75;97146.78;5004569;28;20720;-73
2023/06/24 07:38:56;;;;;;;7.43;6.10;;;;;;;29.13;38.33;97142.19;5019585;28;20289;-75
2023/06/24 07:42:18;;;;;;;7.30;5.57;;;;;;;29.10;37.79;97144.41;5025936;28;20202;-75
2023/06/24 07:45:39;;;;;;;6.60;5.03;;;;;;;29.36;37.56;97152.81;5024990;28;20210;-75
2023/06/24 07:49:00;;;;;;;6.90;5.30;;;;;;;28.46;38.47;97143.13;5027162;28;20226;-73
2023/06/24 07:52:20;;;;;;;6.70;5.40;;;;;;;28.19;39.05;97147.16;5028488;28;20593;-75
2023/06/24 07:55:41;;;;;;;8.37;6.53;;;;;;;28.35;40.94;97152.34;5026438;28;20202;-75
2023/06/24 07:59:02;;;;;;;9.80;7.23;;;;;;;28.67;40.23;97152.13;5025253;28;20233;-75
2023/06/24 08:02:26;;;;;;;6.33;5.70;;;;;;;28.47;40.72;97140.28;5023947;28;20210;-73
2023/06/24 08:05:49;;;;;;;7.57;6.67;;;;;;;28.26;43.21;97149.91;5023993;28;20206;-74
2023/06/24 08:09:10;;;;;;;7.73;6.93;;;;;;;28.52;44.24;97148.53;5025523;28;20265;-74
2023/06/24 08:11:52;;;;;;;6.77;6.07;;;;;;;29.04;43.23;97155.81;4993995;28;20206;-74
2023/06/24 08:14:19;;;;;;;9.67;6.60;;;;;;;28.69;44.77;97144.78;5024923;28;20203;-74
2023/06/24 08:16:46;;;;;;;12.27;6.97;;;;;;;28.51;44.85;97133.56;5026499;28;20195;-74
2023/06/24 08:19:14;;;;;;;7.93;6.50;;;;;;;29.04;44.88;97142.47;5025463;28;20598;-74
2023/06/24 08:21:41;;;;;;;7.50;6.50;;;;;;;29.21;45.04;97143.97;5029894;28;20221;-74
2023/06/24 08:24:08;;;;;;;10.00;6.10;;;;;;;29.17;44.45;97153.34;5029205;28;20594;-75
2023/06/24 08:26:35;;;;;;;7.23;5.90;;;;;;;29.14;44.55;97143.81;5029095;28;20677;-75
2023/06/24 08:29:03;;;;;;;7.90;6.17;;;;;;;29.03;44.80;97146.13;5030108;28;20230;-75
2023/06/24 08:31:30;;;;;;;7.63;6.17;;;;;;;28.91;45.20;97149.22;5028497;28;20552;-75
2023/06/24 08:34:06;;;;;;;7.77;6.80;;;;;;;28.61;45.98;97136.84;5030247;28;20257;-76
2023/06/24 08:36:33;;;;;;;9.30;6.33;;;;;;;28.60;45.49;97123.72;5028650;28;20248;-74
2023/06/24 08:39:00;;;;;;;9.07;7.03;;;;;;;28.79;45.20;97132.00;5029952;28;20305;-73
2023/06/24 08:41:27;;;;;;;8.07;6.90;;;;;;;28.89;45.69;97137.91;5015315;28;20194;-74
2023/06/24 08:43:55;;;;;;;10.87;7.43;;;;;;;28.50;46.64;97144.41;5015234;28;20208;-74
2023/06/24 08:46:25;;;;;;;10.30;7.07;;;;;;;28.44;47.38;97155.81;5014190;28;20256;-73
2023/06/24 08:49:08;;;;;;;9.33;7.53;;;;;;;28.55;47.32;97148.19;5029238;28;20918;-79
2023/06/24 08:51:40;;;;;;;9.13;6.77;;;;;;;29.06;47.25;97149.25;5030343;28;20257;-76
2023/06/24 08:54:09;;;;;;;8.73;6.73;;;;;;;29.61;45.17;97146.19;5028520;28;20201;-75
2023/06/24 08:56:40;;;;;;;10.57;6.50;;;;;;;29.49;45.25;97145.81;5028975;28;20222;-74
2023/06/24 08:59:09;;;;;;;8.87;6.63;;;;;;;29.69;44.95;97132.72;5011728;28;20210;-75
2023/06/24 09:01:36;;;;;;;8.67;6.47;;;;;;;30.07;44.15;97150.25;5010281;28;20696;-74
2023/06/24 09:04:03;;;;;;;10.30;6.60;;;;;;;29.94;45.12;97146.63;5029463;28;20232;-74
2023/06/24 09:06:31;;;;;;;10.23;6.57;;;;;;;29.80;44.38;97148.28;5027540;28;20305;-75
2023/06/24 09:08:58;;;;;;;7.37;6.50;;;;;;;29.05;45.92;97133.44;5029571;28;20232;-75
2023/06/24 09:11:27;;;;;;;10.27;6.27;;;;;;;28.66;46.78;97137.16;5027792;28;20239;-74
2023/06/24 09:13:59;;;;;;;10.17;6.77;;;;;;;28.55;46.77;97124.22;5028349;28;20202;-74
2023/06/24 09:16:26;;;;;;;9.13;5.80;;;;;;;28.46;47.83;97111.94;5029015;28;20284;-78
2023/06/24 09:18:53;;;;;;;10.00;7.87;;;;;;;28.76;47.20;97123.56;5027741;28;20205;-74
2023/06/24 09:21:25;;;;;;;8.37;6.90;;;;;;;29.25;45.95;97137.25;5029094;28;20220;-77
2023/06/24 09:23:53;;;;;;;10.67;6.80;;;;;;;29.00;46.32;97111.84;5027439;28;20207;-74
2023/06/24 09:26:24;;;;;;;10.70;7.47;;;;;;;29.01;46.85;97132.16;5029149;28;20214;-75
2023/06/24 09:28:52;;;;;;;7.80;7.00;;;;;;;29.03;46.30;97130.13;5027667;28;20787;-76
2023/06/24 09:31:20;;;;;;;9.97;7.03;;;;;;;29.25;46.31;97123.91;5027739;28;20202;-74
2023/06/24 09:33:48;;;;;;;9.03;6.23;;;;;;;29.58;44.83;97135.84;5031964;28;20208;-76
2023/06/24 09:36:15;;;;;;;8.07;6.80;;;;;;;29.71;44.78;97120.00;5034267;28;20268;-74
2023/06/24 09:38:47;;;;;;;8.33;6.17;;;;;;;29.78;45.72;97112.91;5033430;28;20209;-75
2023/06/24 09:41:15;;;;;;;9.40;6.50;;;;;;;29.87;44.12;97125.16;5030741;28;20195;-75
2023/06/24 09:43:47;;;;;;;9.03;6.67;;;;;;;29.68;44.64;97123.88;5013561;28;20195;-76
2023/06/24 09:46:15;;;;;;;8.67;5.47;;;;;;;29.70;43.42;97118.34;5028017;28;20245;-75
2023/06/24 09:48:42;;;;;;;6.87;6.10;;;;;;;29.49;43.87;97116.44;5027826;28;20593;-76
2023/06/24 09:51:12;;;;;;;7.73;6.77;;;;;;;29.54;44.38;97118.56;5029032;28;20347;-77
2023/06/24 09:53:40;;;;;;;6.70;6.00;;;;;;;29.70;43.23;97123.69;5027190;28;20288;-76
2023/06/24 09:56:09;;;;;;;8.47;5.87;;;;;;;29.77;42.89;97097.09;5028235;28;20300;-76
2023/06/24 09:58:38;;;;;;;7.57;5.50;;;;;;;29.80;42.04;97110.09;5026490;28;20193;-75
2023/06/24 10:01:06;;;;;;;10.13;6.10;;;;;;;29.63;43.50;97114.78;5010302;28;20326;-76
2023/06/24 10:03:36;;;;;;;7.97;6.37;;;;;;;29.62;42.84;97105.94;5027788;28;20205;-76
2023/06/24 10:06:05;;;;;;;9.73;6.07;;;;;;;29.58;42.75;97109.16;5027483;28;20208;-76
2023/06/24 10:08:33;;;;;;;12.37;7.23;;;;;;;29.86;43.64;97080.78;5028431;28;20209;-77
2023/06/24 10:11:01;;;;;;;8.67;5.60;;;;;;;30.09;42.93;97092.09;5026532;28;20328;-76
2023/06/24 10:13:29;;;;;;;6.17;5.57;;;;;;;30.29;41.70;97082.50;5028269;28;20222;-76
2023/06/24 10:15:58;;;;;;;6.20;5.60;;;;;;;30.12;41.71;97080.22;5026350;28;20207;-78
2023/06/24 10:18:31;;;;;;;7.57;6.10;;;;;;;29.84;42.96;97085.50;5028190;28;20202;-77
2023/06/24 10:20:58;;;;;;;6.67;5.60;;;;;;;29.70;43.78;97070.28;5027558;28;20209;-76
2023/06/24 10:23:47;;;;;;;7.63;5.77;;;;;;;29.27;43.84;97077.34;5026940;28;20303;-75
2023/06/24 10:27:11;;;;;;;6.43;5.80;;;;;;;29.56;43.01;97080.00;5028613;28;20701;-79
2023/06/24 10:30:38;;;;;;;7.17;5.87;;;;;;;30.24;42.90;97071.50;5035815;28;20241;-77
2023/06/24 10:34:00;;;;;;;7.00;6.20;;;;;;;29.84;42.41;97040.09;5008212;28;20435;-77
2023/06/24 10:37:01;;;;;;;6.83;5.93;;;;;;;29.88;43.33;97059.22;5006341;28;20297;-76
2023/06/24 10:40:28;;;;;;;8.43;5.83;;;;;;;30.33;42.71;97062.38;5007569;28;20287;-77
2023/06/24 10:44:04;;;;;;;8.17;5.90;;;;;;;30.12;43.35;97051.66;5007419;28;20214;-78
2023/06/24 10:47:25;;;;;;;6.33;5.57;;;;;;;30.36;42.96;97055.78;5006393;28;20238;-78
2023/06/24 10:50:45;;;;;;;9.17;5.97;;;;;;;29.85;43.44;97052.41;5006381;28;20236;-77
2023/06/24 10:53:27;;;;;;;6.53;5.40;;;;;;;30.04;43.40;97046.44;5007528;28;20261;-76
2023/06/24 10:55:57;;;;;;;6.60;5.93;;;;;;;30.15;42.58;97031.75;5006635;28;20214;-76
2023/06/24 10:58:24;;;;;;;7.20;5.63;;;;;;;30.25;42.50;97027.72;5006534;28;20234;-76
2023/06/24 11:00:51;;;;;;;9.23;5.40;;;;;;;30.32;41.83;97028.63;5013193;28;20594;-77
2023/06/24 11:03:20;;;;;;;8.40;5.43;;;;;;;30.21;42.56;97037.13;5020733;28;20771;-76
2023/06/24 11:05:49;;;;;;;8.97;6.20;;;;;;;30.28;42.83;97032.69;5026174;28;20245;-76
2023/06/24 11:08:16;;;;;;;6.37;5.33;;;;;;;30.23;42.82;97034.28;5026348;28;20248;-75
2023/06/24 11:10:48;;;;;;;8.30;5.80;;;;;;;30.40;41.89;97025.81;5027050;28;20253;-76
2023/06/24 11:13:19;;;;;;;7.20;5.60;;;;;;;30.42;42.02;96997.03;5027630;28;20214;-77
2023/06/24 11:15:47;;;;;;;7.00;6.40;;;;;;;30.39;41.59;97023.34;5026229;28;20704;-77
2023/06/24 11:18:14;;;;;;;8.03;6.20;;;;;;;30.90;41.18;97018.56;5027552;28;20237;-76
2023/06/24 11:20:42;;;;;;;9.33;6.63;;;;;;;31.16;40.41;97024.09;5010906;28;20686;-77
2023/06/24 11:23:10;;;;;;;5.90;5.40;;;;;;;31.52;40.17;97024.66;5029692;28;20538;-77
2023/06/24 11:25:40;;;;;;;10.40;5.50;;;;;;;31.43;40.11;97006.31;5028415;28;20202;-77
2023/06/24 11:28:18;;;;;;;8.77;5.37;;;;;;;31.21;40.12;97008.25;5027107;28;20195;-78
2023/06/24 11:30:49;;;;;;;8.33;6.13;;;;;;;31.40;39.73;96999.50;5027503;28;20251;-80
2023/06/24 11:33:27;;;;;;;5.50;4.93;;;;;;;31.21;40.62;97008.25;5025980;28;20213;-78
2023/06/24 11:35:54;;;;;;;6.40;5.67;;;;;;;31.26;40.15;97003.13;5027502;28;20198;-78
2023/06/24 11:38:22;;;;;;;6.67;5.50;;;;;;;31.35;40.21;97012.63;5025969;28;20584;-77
2023/06/24 11:40:49;;;;;;;5.97;5.27;;;;;;;31.29;41.52;96998.19;5027215;28;20585;-77
2023/06/24 11:43:16;;;;;;;7.57;5.60;;;;;;;31.29;39.65;96967.91;5026544;28;20592;-77
2023/06/24 11:45:43;;;;;;;7.00;5.37;;;;;;;30.95;40.73;96987.56;5026001;28;20199;-78
2023/06/24 11:48:10;;;;;;;7.13;5.27;;;;;;;31.39;40.60;96983.63;5026984;28;20674;-78
2023/06/24 11:50:38;;;;;;;7.27;5.70;;;;;;;31.47;40.16;96986.13;5025358;28;20234;-77
2023/06/24 11:53:05;;;;;;;8.03;5.40;;;;;;;31.22;40.38;96994.66;5010586;28;20666;-78
2023/06/24 11:55:33;;;;;;;7.37;5.80;;;;;;;30.71;41.50;96969.25;5029656;28;20207;-76
2023/06/24 11:58:04;;;;;;;7.47;5.80;;;;;;;30.49;41.92;96959.66;5031359;28;20206;-79
2023/06/24 12:00:35;;;;;;;7.20;5.57;;;;;;;30.18;41.60;96969.91;5012775;28;20213;-78
2023/06/24 12:03:07;;;;;;;10.40;5.40;;;;;;;30.25;41.84;96955.56;5029886;28;20207;-78
2023/06/24 12:05:44;;;;;;;6.93;5.60;;;;;;;30.52;41.65;96970.78;5031072;28;20208;-77
2023/06/24 12:08:15;;;;;;;8.27;5.80;;;;;;;30.46;42.30;96958.22;5029412;28;20237;-78
2023/06/24 12:10:44;;;;;;;6.67;5.83;;;;;;;30.25;41.91;96960.09;5031329;28;20684;-77
2023/06/24 12:13:11;;;;;;;8.23;5.93;;;;;;;30.09;42.37;96974.53;5041369;28;20210;-78
2023/06/24 12:15:38;;;;;;;6.17;5.53;;;;;;;30.31;41.35;96962.03;5042057;28;20210;-76
2023/06/24 12:18:06;;;;;;;6.30;5.60;;;;;;;30.60;41.52;96934.25;5031898;28;20218;-77
2023/06/24 12:20:34;;;;;;;7.60;6.20;;;;;;;30.55;41.20;96937.50;5029972;28;20190;-77
2023/06/24 12:23:06;;;;;;;8.43;6.70;;;;;;;30.67;42.33;96937.75;5030817;28;20205;-75
2023/06/24 12:25:33;;;;;;;6.10;5.50;;;;;;;30.68;41.05;96944.78;5029056;28;20298;-79
2023/06/24 12:28:01;;;;;;;8.73;6.40;;;;;;;30.82;41.20;96925.09;5030573;28;20628;-77
2023/06/24 12:30:29;;;;;;;7.10;5.70;;;;;;;31.24;39.81;96947.09;5029412;28;20330;-77
2023/06/24 12:32:56;;;;;;;6.70;5.80;;;;;;;30.98;40.67;96943.50;5030161;28;20644;-77
2023/06/24 12:35:26;;;;;;;8.20;5.97;;;;;;;30.76;41.29;96939.25;5030680;28;20642;-77
2023/06/24 12:37:54;;;;;;;7.80;6.07;;;;;;;31.06;40.65;96946.84;5011005;28;20206;-76
2023/06/24 12:40:21;;;;;;;8.23;6.03;;;;;;;31.13;40.20;96945.03;5030468;28;20638;-76
2023/06/24 12:42:50;;;;;;;7.10;5.80;;;;;;;31.11;40.67;96932.84;5028458;28;20203;-75
2023/06/24 12:45:17;;;;;;;7.33;6.30;;;;;;;30.97;41.11;96939.19;5030407;28;20642;-78
2023/06/24 12:47:44;;;;;;;6.17;5.57;;;;;;;30.82;40.76;96936.63;5028580;28;20641;-76
2023/06/24 12:50:11;;;;;;;7.90;6.53;;;;;;;30.77;41.29;96928.34;5029639;28;20238;-76
2023/06/24 12:52:39;;;;;;;10.23;6.90;;;;;;;30.99;40.66;96934.47;5029804;28;20230;-72
2023/06/24 12:55:07;;;;;;;8.27;5.77;;;;;;;30.88;40.87;96930.50;5028702;28;20281;-74
2023/06/24 12:57:35;;;;;;;6.33;5.73;;;;;;;30.59;41.17;96916.53;5029943;28;20209;-75
2023/06/24 13:00:08;;;;;;;7.40;6.17;;;;;;;30.45;41.97;96923.66;5029088;28;20211;-81
2023/06/24 13:02:36;;;;;;;7.03;6.40;;;;;;;30.66;41.33;96917.41;5031046;28;20194;-77
2023/06/24 13:05:03;;;;;;;7.17;6.50;;;;;;;30.86;42.55;96921.84;5037885;28;20198;-77
2023/06/24 13:07:31;;;;;;;6.53;5.77;;;;;;;30.70;41.81;96914.13;5037825;28;20207;-77
2023/06/24 13:10:01;;;;;;;8.27;6.77;;;;;;;30.81;40.27;96910.06;5030976;28;20230;-77
2023/06/24 13:12:31;;;;;;;6.80;6.20;;;;;;;30.88;41.50;96905.59;5028782;28;20192;-76
2023/06/24 13:14:58;;;;;;;8.87;6.13;;;;;;;30.83;40.82;96905.34;5012272;28;20239;-76
2023/06/24 13:17:26;;;;;;;8.97;6.23;;;;;;;30.88;40.89;96893.06;5028302;28;20270;-76
2023/06/24 13:19:53;;;;;;;8.47;6.37;;;;;;;30.81;40.89;96899.38;5029794;28;20202;-76
2023/06/24 13:22:20;;;;;;;7.10;6.10;;;;;;;31.15;40.35;96885.94;5027992;28;20261;-82